sensor_id;sensor_type;location;lat;lon;timestamp;temperature;humidity
26982;DHT22;14533;50.848;4.380;2022-07-23T00:00:05;19.30;99.90
26982;DHT22;14533;50.848;4.380;2022-07-23T00:02:33;19.40;99.90
26982;DHT22;14533;50.848;4.380;2022-07-23T00:04:58;19.30;99.90
26982;DHT22;14533;50.848;4.380;2022-07-23T00:07:24;19.30;99.90
26982;DHT22;14533;50.848;4.380;2022-07-23T00:09:49;19.30;99.90
26982;DHT22;14533;50.848;4.380;2022-07-23T00:12:15;19.40;99.90
26982;DHT22;14533;50.848;4.380;2022-07-23T00:14:41;19.30;99.90
26982;DHT22;14533;50.848;4.380;2022-07-23T00:17:06;19.20;99.90
26982;DHT22;14533;50.848;4.380;2022-07-23T00:19:32;19.10;99.90
26982;DHT22;14533;50.848;4.380;2022-07-23T00:21:58;19.10;99.90
26982;DHT22;14533;50.848;4.380;2022-07-23T00:24:23;19.10;99.90
26982;DHT22;14533;50.848;4.380;2022-07-23T00:26:49;19.10;99.90
26982;DHT22;14533;50.848;4.380;2022-07-23T00:29:14;19.10;99.90
26982;DHT22;14533;50.848;4.380;2022-07-23T00:31:40;19.10;99.90
26982;DHT22;14533;50.848;4.380;2022-07-23T00:34:06;19.10;99.90
26982;DHT22;14533;50.848;4.380;2022-07-23T00:36:32;19.10;99.90
26982;DHT22;14533;50.848;4.380;2022-07-23T00:38:57;19.00;99.90
26982;DHT22;14533;50.848;4.380;2022-07-23T00:41:23;19.10;99.90
26982;DHT22;14533;50.848;4.380;2022-07-23T00:43:49;19.00;99.90
26982;DHT22;14533;50.848;4.380;2022-07-23T00:46:21;19.00;99.90
26982;DHT22;14533;50.848;4.380;2022-07-23T00:48:47;19.00;99.90
26982;DHT22;14533;50.848;4.380;2022-07-23T00:51:15;18.90;99.90
26982;DHT22;14533;50.848;4.380;2022-07-23T00:53:41;18.90;99.90
26982;DHT22;14533;50.848;4.380;2022-07-23T00:56:07;18.90;99.90
26982;DHT22;14533;50.848;4.380;2022-07-23T00:58:35;18.90;99.90
26982;DHT22;14533;50.848;4.380;2022-07-23T01:01:01;18.80;99.90
26982;DHT22;14533;50.848;4.380;2022-07-23T01:03:26;18.80;99.90
26982;DHT22;14533;50.848;4.380;2022-07-23T01:05:52;18.80;99.90
26982;DHT22;14533;50.848;4.380;2022-07-23T01:08:18;18.80;99.90
26982;DHT22;14533;50.848;4.380;2022-07-23T01:10:44;18.90;99.90
26982;DHT22;14533;50.848;4.380;2022-07-23T01:13:10;18.90;99.90
26982;DHT22;14533;50.848;4.380;2022-07-23T01:15:36;18.80;99.90
26982;DHT22;14533;50.848;4.380;2022-07-23T01:18:04;18.80;99.90
26982;DHT22;14533;50.848;4.380;2022-07-23T01:20:30;18.70;99.90
26982;DHT22;14533;50.848;4.380;2022-07-23T01:22:56;18.70;99.90
26982;DHT22;14533;50.848;4.380;2022-07-23T01:25:22;18.70;99.90
26982;DHT22;14533;50.848;4.380;2022-07-23T01:27:48;18.60;99.90
26982;DHT22;14533;50.848;4.380;2022-07-23T01:30:14;18.60;99.90
26982;DHT22;14533;50.848;4.380;2022-07-23T01:32:40;18.50;99.90
26982;DHT22;14533;50.848;4.380;2022-07-23T01:35:07;18.60;99.90
26982;DHT22;14533;50.848;4.380;2022-07-23T01:37:32;18.60;99.90
26982;DHT22;14533;50.848;4.380;2022-07-23T01:39:58;18.60;99.90
26982;DHT22;14533;50.848;4.380;2022-07-23T01:42:25;18.70;99.90
26982;DHT22;14533;50.848;4.380;2022-07-23T01:44:50;18.60;99.90
26982;DHT22;14533;50.848;4.380;2022-07-23T01:47:16;18.60;99.90
26982;DHT22;14533;50.848;4.380;2022-07-23T01:49:42;18.60;99.90
26982;DHT22;14533;50.848;4.380;2022-07-23T01:52:08;18.50;99.90
26982;DHT22;14533;50.848;4.380;2022-07-23T01:54:37;18.40;99.90
26982;DHT22;14533;50.848;4.380;2022-07-23T01:57:04;18.40;99.90
26982;DHT22;14533;50.848;4.380;2022-07-23T01:59:29;18.30;99.90
26982;DHT22;14533;50.848;4.380;2022-07-23T02:01:55;18.20;99.90
26982;DHT22;14533;50.848;4.380;2022-07-23T02:04:22;18.30;99.90
26982;DHT22;14533;50.848;4.380;2022-07-23T02:06:48;18.50;99.90
26982;DHT22;14533;50.848;4.380;2022-07-23T02:09:13;18.60;99.90
26982;DHT22;14533;50.848;4.380;2022-07-23T02:11:39;18.60;99.90
26982;DHT22;14533;50.848;4.380;2022-07-23T02:14:05;18.40;99.90
26982;DHT22;14533;50.848;4.380;2022-07-23T02:16:30;18.40;99.90
26982;DHT22;14533;50.848;4.380;2022-07-23T02:18:56;18.30;99.90
26982;DHT22;14533;50.848;4.380;2022-07-23T02:21:22;18.20;99.90
26982;DHT22;14533;50.848;4.380;2022-07-23T02:23:48;18.10;99.90
26982;DHT22;14533;50.848;4.380;2022-07-23T02:26:14;18.00;99.90
26982;DHT22;14533;50.848;4.380;2022-07-23T02:28:39;18.10;99.90
26982;DHT22;14533;50.848;4.380;2022-07-23T02:31:05;18.10;99.90
26982;DHT22;14533;50.848;4.380;2022-07-23T02:33:32;18.10;99.90
26982;DHT22;14533;50.848;4.380;2022-07-23T02:35:57;18.10;99.90
26982;DHT22;14533;50.848;4.380;2022-07-23T02:38:23;18.00;99.90
26982;DHT22;14533;50.848;4.380;2022-07-23T02:40:49;18.10;99.90
26982;DHT22;14533;50.848;4.380;2022-07-23T02:43:14;18.10;99.90
26982;DHT22;14533;50.848;4.380;2022-07-23T02:45:40;18.30;99.90
26982;DHT22;14533;50.848;4.380;2022-07-23T02:48:05;18.50;99.90
26982;DHT22;14533;50.848;4.380;2022-07-23T02:50:31;18.60;99.90
26982;DHT22;14533;50.848;4.380;2022-07-23T02:52:57;18.30;99.90
26982;DHT22;14533;50.848;4.380;2022-07-23T02:55:22;18.30;99.90
26982;DHT22;14533;50.848;4.380;2022-07-23T02:57:48;18.40;99.90
26982;DHT22;14533;50.848;4.380;2022-07-23T03:00:13;18.50;99.90
26982;DHT22;14533;50.848;4.380;2022-07-23T03:02:39;18.50;99.90
26982;DHT22;14533;50.848;4.380;2022-07-23T03:05:05;18.50;99.90
26982;DHT22;14533;50.848;4.380;2022-07-23T03:07:30;18.10;99.90
26982;DHT22;14533;50.848;4.380;2022-07-23T03:09:56;18.00;99.90
26982;DHT22;14533;50.848;4.380;2022-07-23T03:12:22;17.90;99.90
26982;DHT22;14533;50.848;4.380;2022-07-23T03:14:47;17.90;99.90
26982;DHT22;14533;50.848;4.380;2022-07-23T03:17:13;18.00;99.90
26982;DHT22;14533;50.848;4.380;2022-07-23T03:19:38;18.10;99.90
26982;DHT22;14533;50.848;4.380;2022-07-23T03:22:05;18.30;99.90
26982;DHT22;14533;50.848;4.380;2022-07-23T03:24:31;18.30;99.90
26982;DHT22;14533;50.848;4.380;2022-07-23T03:27:15;18.20;99.90
26982;DHT22;14533;50.848;4.380;2022-07-23T03:29:41;18.00;99.90
26982;DHT22;14533;50.848;4.380;2022-07-23T03:32:06;17.90;99.90
26982;DHT22;14533;50.848;4.380;2022-07-23T03:34:32;17.90;99.90
26982;DHT22;14533;50.848;4.380;2022-07-23T03:36:58;17.80;99.90
26982;DHT22;14533;50.848;4.380;2022-07-23T03:39:23;17.90;99.90
26982;DHT22;14533;50.848;4.380;2022-07-23T03:41:49;17.80;99.90
26982;DHT22;14533;50.848;4.380;2022-07-23T03:44:15;17.80;99.90
26982;DHT22;14533;50.848;4.380;2022-07-23T03:46:40;17.80;99.90
26982;DHT22;14533;50.848;4.380;2022-07-23T03:49:06;17.90;99.90
26982;DHT22;14533;50.848;4.380;2022-07-23T03:51:31;18.00;99.90
26982;DHT22;14533;50.848;4.380;2022-07-23T03:53:57;18.30;99.90
26982;DHT22;14533;50.848;4.380;2022-07-23T03:56:23;18.10;99.90
26982;DHT22;14533;50.848;4.380;2022-07-23T03:58:49;18.00;99.90
26982;DHT22;14533;50.848;4.380;2022-07-23T04:01:15;17.90;99.90
26982;DHT22;14533;50.848;4.380;2022-07-23T04:03:40;17.90;99.90
26982;DHT22;14533;50.848;4.380;2022-07-23T04:06:06;17.90;99.90
26982;DHT22;14533;50.848;4.380;2022-07-23T04:08:32;17.80;99.90
26982;DHT22;14533;50.848;4.380;2022-07-23T04:10:57;17.80;99.90
26982;DHT22;14533;50.848;4.380;2022-07-23T04:13:23;17.80;99.90
26982;DHT22;14533;50.848;4.380;2022-07-23T04:15:49;17.90;99.90
26982;DHT22;14533;50.848;4.380;2022-07-23T04:18:16;17.80;99.90
26982;DHT22;14533;50.848;4.380;2022-07-23T04:20:43;17.90;99.90
26982;DHT22;14533;50.848;4.380;2022-07-23T04:23:09;17.90;99.90
26982;DHT22;14533;50.848;4.380;2022-07-23T04:25:35;18.10;99.90
26982;DHT22;14533;50.848;4.380;2022-07-23T04:28:01;18.00;99.90
26982;DHT22;14533;50.848;4.380;2022-07-23T04:30:26;17.90;99.90
26982;DHT22;14533;50.848;4.380;2022-07-23T04:32:52;17.70;99.90
26982;DHT22;14533;50.848;4.380;2022-07-23T04:35:18;17.70;99.90
26982;DHT22;14533;50.848;4.380;2022-07-23T04:37:43;17.70;99.90
26982;DHT22;14533;50.848;4.380;2022-07-23T04:40:09;17.80;99.90
26982;DHT22;14533;50.848;4.380;2022-07-23T04:42:36;17.80;99.90
26982;DHT22;14533;50.848;4.380;2022-07-23T04:45:02;17.80;99.90
26982;DHT22;14533;50.848;4.380;2022-07-23T04:47:29;17.80;99.90
26982;DHT22;14533;50.848;4.380;2022-07-23T04:49:56;17.90;99.90
26982;DHT22;14533;50.848;4.380;2022-07-23T04:52:21;17.90;99.90
26982;DHT22;14533;50.848;4.380;2022-07-23T04:54:47;18.00;99.90
26982;DHT22;14533;50.848;4.380;2022-07-23T04:57:13;18.00;99.90
26982;DHT22;14533;50.848;4.380;2022-07-23T04:59:38;18.10;99.90
26982;DHT22;14533;50.848;4.380;2022-07-23T05:02:04;18.10;99.90
26982;DHT22;14533;50.848;4.380;2022-07-23T05:04:29;18.10;99.90
26982;DHT22;14533;50.848;4.380;2022-07-23T05:06:57;18.20;99.90
26982;DHT22;14533;50.848;4.380;2022-07-23T05:09:22;18.20;99.90
26982;DHT22;14533;50.848;4.380;2022-07-23T05:11:48;18.40;99.90
26982;DHT22;14533;50.848;4.380;2022-07-23T05:14:14;18.60;99.90
26982;DHT22;14533;50.848;4.380;2022-07-23T05:16:39;18.80;99.90
26982;DHT22;14533;50.848;4.380;2022-07-23T05:19:05;18.80;99.90
26982;DHT22;14533;50.848;4.380;2022-07-23T05:21:30;18.70;99.90
26982;DHT22;14533;50.848;4.380;2022-07-23T05:23:56;18.80;99.90
26982;DHT22;14533;50.848;4.380;2022-07-23T05:26:22;18.80;99.90
26982;DHT22;14533;50.848;4.380;2022-07-23T05:28:47;18.90;99.90
26982;DHT22;14533;50.848;4.380;2022-07-23T05:31:13;18.90;99.90
26982;DHT22;14533;50.848;4.380;2022-07-23T05:33:38;18.70;99.90
26982;DHT22;14533;50.848;4.380;2022-07-23T05:36:04;18.80;99.90
26982;DHT22;14533;50.848;4.380;2022-07-23T05:38:32;18.90;99.90
26982;DHT22;14533;50.848;4.380;2022-07-23T05:40:58;19.10;99.90
26982;DHT22;14533;50.848;4.380;2022-07-23T05:43:23;19.10;99.90
26982;DHT22;14533;50.848;4.380;2022-07-23T05:45:49;19.20;99.90
26982;DHT22;14533;50.848;4.380;2022-07-23T05:48:15;19.30;99.90
26982;DHT22;14533;50.848;4.380;2022-07-23T05:50:41;19.40;99.90
26982;DHT22;14533;50.848;4.380;2022-07-23T05:53:06;19.50;99.90
26982;DHT22;14533;50.848;4.380;2022-07-23T05:55:32;19.80;99.90
26982;DHT22;14533;50.848;4.380;2022-07-23T05:57:59;20.30;99.90
26982;DHT22;14533;50.848;4.380;2022-07-23T06:00:25;20.70;99.90
26982;DHT22;14533;50.848;4.380;2022-07-23T06:02:51;21.10;99.90
26982;DHT22;14533;50.848;4.380;2022-07-23T06:05:17;21.80;99.90
26982;DHT22;14533;50.848;4.380;2022-07-23T06:07:43;23.20;99.90
26982;DHT22;14533;50.848;4.380;2022-07-23T06:10:09;24.90;99.90
26982;DHT22;14533;50.848;4.380;2022-07-23T06:12:34;25.70;99.90
26982;DHT22;14533;50.848;4.380;2022-07-23T06:15:00;26.50;99.90
26982;DHT22;14533;50.848;4.380;2022-07-23T06:17:26;27.30;99.90
26982;DHT22;14533;50.848;4.380;2022-07-23T06:19:52;28.20;98.50
26982;DHT22;14533;50.848;4.380;2022-07-23T06:22:18;29.10;96.70
26982;DHT22;14533;50.848;4.380;2022-07-23T06:24:44;29.60;93.70
26982;DHT22;14533;50.848;4.380;2022-07-23T06:27:09;29.40;92.40
26982;DHT22;14533;50.848;4.380;2022-07-23T06:29:35;29.70;92.70
26982;DHT22;14533;50.848;4.380;2022-07-23T06:32:01;30.30;91.30
26982;DHT22;14533;50.848;4.380;2022-07-23T06:34:26;31.00;90.10
26982;DHT22;14533;50.848;4.380;2022-07-23T06:36:52;31.30;87.40
26982;DHT22;14533;50.848;4.380;2022-07-23T06:39:18;30.60;87.30
26982;DHT22;14533;50.848;4.380;2022-07-23T06:41:43;30.20;86.60
26982;DHT22;14533;50.848;4.380;2022-07-23T06:44:09;30.20;89.30
26982;DHT22;14533;50.848;4.380;2022-07-23T06:46:35;29.80;89.90
26982;DHT22;14533;50.848;4.380;2022-07-23T06:49:00;30.10;88.80
26982;DHT22;14533;50.848;4.380;2022-07-23T06:51:26;29.20;90.40
26982;DHT22;14533;50.848;4.380;2022-07-23T06:53:52;28.20;91.90
26982;DHT22;14533;50.848;4.380;2022-07-23T06:56:17;29.10;92.00
26982;DHT22;14533;50.848;4.380;2022-07-23T06:58:43;29.70;89.60
26982;DHT22;14533;50.848;4.380;2022-07-23T07:01:08;29.70;89.10
26982;DHT22;14533;50.848;4.380;2022-07-23T07:03:34;28.80;91.10
26982;DHT22;14533;50.848;4.380;2022-07-23T07:06:00;29.30;90.30
26982;DHT22;14533;50.848;4.380;2022-07-23T07:08:25;29.00;90.60
26982;DHT22;14533;50.848;4.380;2022-07-23T07:10:51;28.70;91.30
26982;DHT22;14533;50.848;4.380;2022-07-23T07:13:16;29.60;90.20
26982;DHT22;14533;50.848;4.380;2022-07-23T07:15:42;31.30;85.50
26982;DHT22;14533;50.848;4.380;2022-07-23T07:18:08;32.30;81.40
26982;DHT22;14533;50.848;4.380;2022-07-23T07:20:33;33.70;75.30
26982;DHT22;14533;50.848;4.380;2022-07-23T07:22:59;34.80;71.30
26982;DHT22;14533;50.848;4.380;2022-07-23T07:25:25;35.10;65.70
26982;DHT22;14533;50.848;4.380;2022-07-23T07:27:50;35.40;65.60
26982;DHT22;14533;50.848;4.380;2022-07-23T07:30:16;34.90;65.10
26982;DHT22;14533;50.848;4.380;2022-07-23T07:32:42;35.70;64.10
26982;DHT22;14533;50.848;4.380;2022-07-23T07:35:08;36.10;60.90
26982;DHT22;14533;50.848;4.380;2022-07-23T07:37:34;36.90;58.50
26982;DHT22;14533;50.848;4.380;2022-07-23T07:40:00;37.20;56.20
26982;DHT22;14533;50.848;4.380;2022-07-23T07:42:26;37.70;55.00
26982;DHT22;14533;50.848;4.380;2022-07-23T07:44:52;37.10;55.20
26982;DHT22;14533;50.848;4.380;2022-07-23T07:47:17;36.60;56.80
26982;DHT22;14533;50.848;4.380;2022-07-23T07:49:43;37.20;55.00
26982;DHT22;14533;50.848;4.380;2022-07-23T07:52:09;37.20;54.70
26982;DHT22;14533;50.848;4.380;2022-07-23T07:54:35;36.80;55.30
26982;DHT22;14533;50.848;4.380;2022-07-23T07:57:01;37.40;54.50
26982;DHT22;14533;50.848;4.380;2022-07-23T07:59:27;37.20;52.70
26982;DHT22;14533;50.848;4.380;2022-07-23T08:01:52;36.20;53.60
26982;DHT22;14533;50.848;4.380;2022-07-23T08:04:18;35.50;55.60
26982;DHT22;14533;50.848;4.380;2022-07-23T08:06:44;35.00;57.10
26982;DHT22;14533;50.848;4.380;2022-07-23T08:09:10;33.70;58.80
26982;DHT22;14533;50.848;4.380;2022-07-23T08:11:35;34.40;58.70
26982;DHT22;14533;50.848;4.380;2022-07-23T08:14:01;35.10;57.80
26982;DHT22;14533;50.848;4.380;2022-07-23T08:16:27;35.30;56.60
26982;DHT22;14533;50.848;4.380;2022-07-23T08:18:52;35.20;56.90
26982;DHT22;14533;50.848;4.380;2022-07-23T08:21:18;34.90;58.00
26982;DHT22;14533;50.848;4.380;2022-07-23T08:23:44;35.50;55.50
26982;DHT22;14533;50.848;4.380;2022-07-23T08:26:09;35.50;55.60
26982;DHT22;14533;50.848;4.380;2022-07-23T08:28:35;34.80;55.90
26982;DHT22;14533;50.848;4.380;2022-07-23T08:31:01;35.40;56.70
26982;DHT22;14533;50.848;4.380;2022-07-23T08:33:26;34.80;56.10
26982;DHT22;14533;50.848;4.380;2022-07-23T08:35:52;34.30;56.40
26982;DHT22;14533;50.848;4.380;2022-07-23T08:38:20;33.10;58.80
26982;DHT22;14533;50.848;4.380;2022-07-23T08:40:52;33.60;59.00
26982;DHT22;14533;50.848;4.380;2022-07-23T08:43:20;34.20;57.60
26982;DHT22;14533;50.848;4.380;2022-07-23T08:45:49;34.90;57.20
26982;DHT22;14533;50.848;4.380;2022-07-23T08:48:16;34.90;55.70
26982;DHT22;14533;50.848;4.380;2022-07-23T08:51:04;34.70;56.30
26982;DHT22;14533;50.848;4.380;2022-07-23T08:53:31;35.70;54.90
26982;DHT22;14533;50.848;4.380;2022-07-23T08:56:02;35.60;53.50
26982;DHT22;14533;50.848;4.380;2022-07-23T08:58:28;34.70;55.60
26982;DHT22;14533;50.848;4.380;2022-07-23T09:00:55;35.00;56.00
26982;DHT22;14533;50.848;4.380;2022-07-23T09:03:24;35.30;55.60
26982;DHT22;14533;50.848;4.380;2022-07-23T09:05:51;35.60;54.50
26982;DHT22;14533;50.848;4.380;2022-07-23T09:08:22;35.50;54.80
26982;DHT22;14533;50.848;4.380;2022-07-23T09:13:49;36.10;53.50
26982;DHT22;14533;50.848;4.380;2022-07-23T09:16:23;36.00;53.30
26982;DHT22;14533;50.848;4.380;2022-07-23T09:18:55;34.90;55.00
26982;DHT22;14533;50.848;4.380;2022-07-23T09:23:53;34.30;55.90
26982;DHT22;14533;50.848;4.380;2022-07-23T09:28:57;34.20;56.40
26982;DHT22;14533;50.848;4.380;2022-07-23T09:31:24;34.30;55.80
26982;DHT22;14533;50.848;4.380;2022-07-23T09:33:50;34.70;55.50
26982;DHT22;14533;50.848;4.380;2022-07-23T09:36:27;34.70;55.40
26982;DHT22;14533;50.848;4.380;2022-07-23T09:38:53;34.60;55.30
26982;DHT22;14533;50.848;4.380;2022-07-23T09:41:18;33.50;56.00
26982;DHT22;14533;50.848;4.380;2022-07-23T09:43:44;33.60;56.60
26982;DHT22;14533;50.848;4.380;2022-07-23T09:46:18;33.70;57.10
26982;DHT22;14533;50.848;4.380;2022-07-23T09:48:45;34.10;55.20
26982;DHT22;14533;50.848;4.380;2022-07-23T09:51:11;34.30;54.60
26982;DHT22;14533;50.848;4.380;2022-07-23T09:53:37;34.20;55.00
26982;DHT22;14533;50.848;4.380;2022-07-23T09:56:03;34.40;55.00
26982;DHT22;14533;50.848;4.380;2022-07-23T09:58:30;34.20;54.20
26982;DHT22;14533;50.848;4.380;2022-07-23T10:00:57;33.20;55.10
26982;DHT22;14533;50.848;4.380;2022-07-23T10:03:23;32.60;56.80
26982;DHT22;14533;50.848;4.380;2022-07-23T10:05:50;32.00;57.90
26982;DHT22;14533;50.848;4.380;2022-07-23T10:08:18;31.60;59.40
26982;DHT22;14533;50.848;4.380;2022-07-23T10:10:46;31.20;60.90
26982;DHT22;14533;50.848;4.380;2022-07-23T10:13:12;31.60;60.70
26982;DHT22;14533;50.848;4.380;2022-07-23T10:15:57;32.00;58.90
26982;DHT22;14533;50.848;4.380;2022-07-23T10:18:23;31.30;59.40
26982;DHT22;14533;50.848;4.380;2022-07-23T10:20:49;31.80;59.10
26982;DHT22;14533;50.848;4.380;2022-07-23T10:23:31;31.80;58.90
26982;DHT22;14533;50.848;4.380;2022-07-23T10:26:17;32.30;57.90
26982;DHT22;14533;50.848;4.380;2022-07-23T10:28:59;32.30;57.40
26982;DHT22;14533;50.848;4.380;2022-07-23T10:34:35;31.30;58.70
26982;DHT22;14533;50.848;4.380;2022-07-23T10:37:42;30.60;60.60
26982;DHT22;14533;50.848;4.380;2022-07-23T10:40:14;30.80;60.60
26982;DHT22;14533;50.848;4.380;2022-07-23T10:42:40;31.10;60.40
26982;DHT22;14533;50.848;4.380;2022-07-23T10:45:30;31.30;60.00
26982;DHT22;14533;50.848;4.380;2022-07-23T10:50:43;32.40;59.10
26982;DHT22;14533;50.848;4.380;2022-07-23T10:53:17;32.90;57.80
26982;DHT22;14533;50.848;4.380;2022-07-23T10:55:51;33.00;57.60
26982;DHT22;14533;50.848;4.380;2022-07-23T10:58:22;32.60;57.80
26982;DHT22;14533;50.848;4.380;2022-07-23T11:00:49;32.30;58.90
26982;DHT22;14533;50.848;4.380;2022-07-23T11:03:30;32.10;57.80
26982;DHT22;14533;50.848;4.380;2022-07-23T11:05:58;31.90;59.20
26982;DHT22;14533;50.848;4.380;2022-07-23T11:08:23;30.80;60.90
26982;DHT22;14533;50.848;4.380;2022-07-23T11:13:36;31.20;60.40
26982;DHT22;14533;50.848;4.380;2022-07-23T11:16:18;31.20;60.10
26982;DHT22;14533;50.848;4.380;2022-07-23T11:26:44;29.70;63.60
26982;DHT22;14533;50.848;4.380;2022-07-23T11:31:51;29.20;64.90
26982;DHT22;14533;50.848;4.380;2022-07-23T11:34:30;29.40;65.80
26982;DHT22;14533;50.848;4.380;2022-07-23T11:36:56;30.00;64.10
26982;DHT22;14533;50.848;4.380;2022-07-23T11:39:25;30.10;63.80
26982;DHT22;14533;50.848;4.380;2022-07-23T11:41:55;30.30;63.10
26982;DHT22;14533;50.848;4.380;2022-07-23T11:44:28;30.20;61.90
26982;DHT22;14533;50.848;4.380;2022-07-23T11:47:05;30.00;63.40
26982;DHT22;14533;50.848;4.380;2022-07-23T11:49:31;29.60;63.10
26982;DHT22;14533;50.848;4.380;2022-07-23T11:54:33;28.80;66.20
26982;DHT22;14533;50.848;4.380;2022-07-23T11:57:00;29.30;66.30
26982;DHT22;14533;50.848;4.380;2022-07-23T11:59:29;29.70;64.00
26982;DHT22;14533;50.848;4.380;2022-07-23T12:02:03;29.40;64.10
26982;DHT22;14533;50.848;4.380;2022-07-23T12:07:05;29.50;63.60
26982;DHT22;14533;50.848;4.380;2022-07-23T12:09:47;29.80;64.30
26982;DHT22;14533;50.848;4.380;2022-07-23T12:12:12;30.00;63.00
26982;DHT22;14533;50.848;4.380;2022-07-23T12:14:48;30.10;62.90
26982;DHT22;14533;50.848;4.380;2022-07-23T12:17:14;30.10;62.30
26982;DHT22;14533;50.848;4.380;2022-07-23T12:19:39;29.70;63.50
26982;DHT22;14533;50.848;4.380;2022-07-23T12:22:05;29.50;64.80
26982;DHT22;14533;50.848;4.380;2022-07-23T12:24:31;29.60;64.80
26982;DHT22;14533;50.848;4.380;2022-07-23T12:27:20;30.00;64.20
26982;DHT22;14533;50.848;4.380;2022-07-23T12:29:46;30.10;63.20
26982;DHT22;14533;50.848;4.380;2022-07-23T12:32:20;29.60;64.10
26982;DHT22;14533;50.848;4.380;2022-07-23T12:34:48;29.60;64.10
26982;DHT22;14533;50.848;4.380;2022-07-23T12:37:26;29.60;64.20
26982;DHT22;14533;50.848;4.380;2022-07-23T12:39:52;29.80;64.00
26982;DHT22;14533;50.848;4.380;2022-07-23T12:42:18;30.20;63.50
26982;DHT22;14533;50.848;4.380;2022-07-23T12:45:04;30.50;62.10
26982;DHT22;14533;50.848;4.380;2022-07-23T12:47:29;30.70;62.00
26982;DHT22;14533;50.848;4.380;2022-07-23T12:49:55;30.70;61.20
26982;DHT22;14533;50.848;4.380;2022-07-23T12:52:21;30.60;61.20
26982;DHT22;14533;50.848;4.380;2022-07-23T12:54:47;30.50;62.00
26982;DHT22;14533;50.848;4.380;2022-07-23T12:57:12;30.40;62.20
26982;DHT22;14533;50.848;4.380;2022-07-23T12:59:38;29.30;63.50
26982;DHT22;14533;50.848;4.380;2022-07-23T13:02:03;28.30;66.80
26982;DHT22;14533;50.848;4.380;2022-07-23T13:04:29;28.00;68.50
26982;DHT22;14533;50.848;4.380;2022-07-23T13:06:58;28.00;69.10
26982;DHT22;14533;50.848;4.380;2022-07-23T13:09:27;28.20;69.70
26982;DHT22;14533;50.848;4.380;2022-07-23T13:11:54;28.60;68.60
26982;DHT22;14533;50.848;4.380;2022-07-23T13:14:21;28.90;68.50
26982;DHT22;14533;50.848;4.380;2022-07-23T13:16:48;29.30;69.20
26982;DHT22;14533;50.848;4.380;2022-07-23T13:19:14;29.90;64.90
26982;DHT22;14533;50.848;4.380;2022-07-23T13:21:41;29.70;64.20
26982;DHT22;14533;50.848;4.380;2022-07-23T13:24:08;29.70;64.60
26982;DHT22;14533;50.848;4.380;2022-07-23T13:26:34;29.60;65.10
26982;DHT22;14533;50.848;4.380;2022-07-23T13:29:00;29.30;65.00
26982;DHT22;14533;50.848;4.380;2022-07-23T13:31:25;29.30;65.30
26982;DHT22;14533;50.848;4.380;2022-07-23T13:33:51;29.20;65.20
26982;DHT22;14533;50.848;4.380;2022-07-23T13:36:17;29.20;65.30
26982;DHT22;14533;50.848;4.380;2022-07-23T13:38:42;29.00;65.40
26982;DHT22;14533;50.848;4.380;2022-07-23T13:41:08;29.20;65.90
26982;DHT22;14533;50.848;4.380;2022-07-23T13:43:34;29.30;65.70
26982;DHT22;14533;50.848;4.380;2022-07-23T13:45:59;29.50;65.10
26982;DHT22;14533;50.848;4.380;2022-07-23T13:48:25;29.80;64.60
26982;DHT22;14533;50.848;4.380;2022-07-23T13:50:51;29.90;63.10
26982;DHT22;14533;50.848;4.380;2022-07-23T13:53:21;30.10;62.90
26982;DHT22;14533;50.848;4.380;2022-07-23T13:55:48;30.10;63.40
26982;DHT22;14533;50.848;4.380;2022-07-23T13:58:14;29.80;64.20
26982;DHT22;14533;50.848;4.380;2022-07-23T14:00:45;29.40;64.30
26982;DHT22;14533;50.848;4.380;2022-07-23T14:03:11;29.20;65.90
26982;DHT22;14533;50.848;4.380;2022-07-23T14:05:37;29.00;66.00
26982;DHT22;14533;50.848;4.380;2022-07-23T14:08:03;28.90;66.90
26982;DHT22;14533;50.848;4.380;2022-07-23T14:10:28;28.90;67.30
26982;DHT22;14533;50.848;4.380;2022-07-23T14:12:54;29.00;67.70
26982;DHT22;14533;50.848;4.380;2022-07-23T14:15:22;29.40;67.00
26982;DHT22;14533;50.848;4.380;2022-07-23T14:17:48;29.30;66.10
26982;DHT22;14533;50.848;4.380;2022-07-23T14:20:15;29.20;66.70
26982;DHT22;14533;50.848;4.380;2022-07-23T14:22:41;29.00;67.40
26982;DHT22;14533;50.848;4.380;2022-07-23T14:25:08;29.10;68.00
26982;DHT22;14533;50.848;4.380;2022-07-23T14:27:34;29.30;67.90
26982;DHT22;14533;50.848;4.380;2022-07-23T14:30:00;29.60;67.40
26982;DHT22;14533;50.848;4.380;2022-07-23T14:32:27;29.70;67.10
26982;DHT22;14533;50.848;4.380;2022-07-23T14:34:53;30.30;67.70
26982;DHT22;14533;50.848;4.380;2022-07-23T14:37:18;30.80;65.00
26982;DHT22;14533;50.848;4.380;2022-07-23T14:39:45;31.10;63.40
26982;DHT22;14533;50.848;4.380;2022-07-23T14:42:11;31.00;62.10
26982;DHT22;14533;50.848;4.380;2022-07-23T14:44:37;30.60;62.80
26982;DHT22;14533;50.848;4.380;2022-07-23T14:47:04;30.00;64.30
26982;DHT22;14533;50.848;4.380;2022-07-23T14:49:31;29.60;65.30
26982;DHT22;14533;50.848;4.380;2022-07-23T14:51:57;29.20;66.30
26982;DHT22;14533;50.848;4.380;2022-07-23T14:54:23;28.80;67.70
26982;DHT22;14533;50.848;4.380;2022-07-23T14:56:51;28.90;67.60
26982;DHT22;14533;50.848;4.380;2022-07-23T14:59:16;29.10;67.20
26982;DHT22;14533;50.848;4.380;2022-07-23T15:01:42;29.20;66.90
26982;DHT22;14533;50.848;4.380;2022-07-23T15:04:07;29.50;66.80
26982;DHT22;14533;50.848;4.380;2022-07-23T15:06:33;29.70;66.50
26982;DHT22;14533;50.848;4.380;2022-07-23T15:08:59;29.60;66.40
26982;DHT22;14533;50.848;4.380;2022-07-23T15:11:26;29.80;65.90
26982;DHT22;14533;50.848;4.380;2022-07-23T15:13:52;30.20;65.80
26982;DHT22;14533;50.848;4.380;2022-07-23T15:16:18;30.60;64.30
26982;DHT22;14533;50.848;4.380;2022-07-23T15:18:43;31.00;63.80
26982;DHT22;14533;50.848;4.380;2022-07-23T15:21:09;31.40;63.00
26982;DHT22;14533;50.848;4.380;2022-07-23T15:23:34;30.80;63.70
26982;DHT22;14533;50.848;4.380;2022-07-23T15:26:00;30.40;64.60
26982;DHT22;14533;50.848;4.380;2022-07-23T15:28:26;30.10;65.10
26982;DHT22;14533;50.848;4.380;2022-07-23T15:30:52;29.90;65.70
26982;DHT22;14533;50.848;4.380;2022-07-23T15:33:19;29.80;66.00
26982;DHT22;14533;50.848;4.380;2022-07-23T15:35:45;29.70;65.50
26982;DHT22;14533;50.848;4.380;2022-07-23T15:38:10;29.50;65.30
26982;DHT22;14533;50.848;4.380;2022-07-23T15:40:36;29.20;66.60
26982;DHT22;14533;50.848;4.380;2022-07-23T15:43:02;29.30;66.40
26982;DHT22;14533;50.848;4.380;2022-07-23T15:45:30;29.40;66.40
26982;DHT22;14533;50.848;4.380;2022-07-23T15:47:56;29.00;67.40
26982;DHT22;14533;50.848;4.380;2022-07-23T15:50:23;28.90;68.30
26982;DHT22;14533;50.848;4.380;2022-07-23T15:52:49;28.70;68.80
26982;DHT22;14533;50.848;4.380;2022-07-23T15:55:15;28.70;68.90
26982;DHT22;14533;50.848;4.380;2022-07-23T15:57:40;28.70;69.10
26982;DHT22;14533;50.848;4.380;2022-07-23T16:00:07;28.60;69.30